Time;durP1;ratioP1;P1;durP2;ratioP2;P2;SDS_P1;SDS_P2;PMS_P1;PMS_P2;Temp;Humidity;BMP_temperature;BMP_pressure;BME280_temperature;BME280_humidity;BME280_pressure;Samples;Min_cycle;Max_cycle;Signal;HPM_P1;HPM_P2
2021/05/07 00:01:08;;;;;;;6.20;3.37;;;;;;;16.54;54.74;94668.47;5092128;28;20788;-76
2021/05/07 00:03:34;;;;;;;3.70;2.43;;;;;;;16.56;54.35;94666.47;5091828;28;21112;-76
2021/05/07 00:06:03;;;;;;;5.43;2.70;;;;;;;16.55;54.94;94670.13;5092259;28;20444;-75
2021/05/07 00:08:31;;;;;;;2.80;2.60;;;;;;;16.55;54.88;94664.81;5092109;28;20492;-75
2021/05/07 00:10:59;;;;;;;2.93;2.73;;;;;;;16.59;54.29;94674.06;5092007;28;20936;-75
2021/05/07 00:13:25;;;;;;;3.83;2.60;;;;;;;16.60;54.57;94672.25;5093885;28;20442;-76
2021/05/07 00:15:53;;;;;;;4.23;2.97;;;;;;;16.62;55.09;94670.25;5096002;28;20449;-75
2021/05/07 00:18:20;;;;;;;3.80;2.73;;;;;;;16.62;54.62;94673.72;5095995;28;20801;-75
2021/05/07 00:20:46;;;;;;;3.00;2.70;;;;;;;16.52;54.80;94670.47;5096006;28;20525;-75
2021/05/07 00:23:13;;;;;;;3.80;3.50;;;;;;;16.42;55.73;94672.47;5096015;28;20490;-75
2021/05/07 00:25:40;;;;;;;4.13;3.30;;;;;;;16.37;55.64;94677.47;5095767;28;20453;-75
2021/05/07 00:28:08;;;;;;;8.33;3.20;;;;;;;16.34;55.97;94685.75;5095877;28;20444;-75
2021/05/07 00:30:36;;;;;;;4.63;3.10;;;;;;;16.30;55.84;94668.56;5096049;28;20580;-75
2021/05/07 00:33:04;;;;;;;5.67;3.23;;;;;;;16.30;55.93;94663.25;5095759;28;20443;-75
2021/05/07 00:35:30;;;;;;;4.00;2.80;;;;;;;16.25;56.23;94657.66;5095640;28;21062;-77
2021/05/07 00:37:57;;;;;;;3.67;3.37;;;;;;;16.23;56.38;94660.47;5095862;28;20449;-76
2021/05/07 00:40:23;;;;;;;4.50;3.23;;;;;;;16.18;56.61;94664.59;5095342;28;20691;-75
2021/05/07 00:42:50;;;;;;;3.53;3.23;;;;;;;16.14;56.82;94671.22;5095355;28;20480;-75
2021/05/07 00:45:17;;;;;;;3.73;2.80;;;;;;;16.10;57.13;94663.63;5095679;28;20854;-75
2021/05/07 00:47:48;;;;;;;3.80;3.50;;;;;;;16.06;57.61;94662.31;5095518;28;20449;-75
2021/05/07 00:50:16;;;;;;;9.17;3.40;;;;;;;16.04;57.82;94672.25;5059530;28;20440;-75
2021/05/07 00:52:43;;;;;;;3.53;3.17;;;;;;;16.00;57.78;94665.66;5095537;28;20927;-75
2021/05/07 00:55:11;;;;;;;5.83;3.10;;;;;;;15.96;57.65;94659.03;5095116;28;20939;-76
2021/05/07 00:57:38;;;;;;;3.97;3.60;;;;;;;15.94;58.48;94665.50;5095370;28;20440;-76
2021/05/07 01:00:06;;;;;;;3.20;2.70;;;;;;;15.88;58.64;94655.56;5095432;28;20456;-75
2021/05/07 01:02:34;;;;;;;4.07;3.10;;;;;;;15.80;58.79;94656.41;5095414;28;20484;-76
2021/05/07 01:05:01;;;;;;;3.27;2.70;;;;;;;15.81;58.67;94663.34;5095352;28;20500;-75
2021/05/07 01:07:28;;;;;;;5.43;3.20;;;;;;;15.77;59.03;94644.34;5059439;28;20432;-75
2021/05/07 01:09:55;;;;;;;3.40;3.10;;;;;;;15.80;58.86;94651.13;5095067;28;20517;-76
2021/05/07 01:12:21;;;;;;;4.00;3.60;;;;;;;15.79;59.35;94646.81;5094944;28;20705;-75
2021/05/07 01:15:05;;;;;;;3.87;2.97;;;;;;;15.77;59.39;94651.47;5095031;28;20437;-75
2021/05/07 01:17:31;;;;;;;3.07;2.80;;;;;;;15.77;59.26;94659.41;5094805;28;20488;-75
2021/05/07 01:20:09;;;;;;;3.63;3.13;;;;;;;15.75;59.42;94653.44;5095027;28;20458;-75
2021/05/07 01:22:37;;;;;;;3.33;3.03;;;;;;;15.74;59.55;94642.03;5094831;28;20483;-75
2021/05/07 01:25:05;;;;;;;5.60;3.07;;;;;;;15.76;59.26;94652.44;5094038;28;20535;-75
2021/05/07 01:27:36;;;;;;;5.53;3.20;;;;;;;15.76;59.20;94647.16;5094609;28;20940;-75
2021/05/07 01:30:09;;;;;;;4.00;3.20;;;;;;;15.75;59.30;94650.81;5094787;28;20448;-75
2021/05/07 01:32:36;;;;;;;3.13;2.90;;;;;;;15.68;59.61;94653.28;5092480;28;20427;-75
2021/05/07 01:35:04;;;;;;;4.60;3.63;;;;;;;15.62;59.91;94650.50;5094353;28;20450;-76
2021/05/07 01:37:30;;;;;;;8.60;3.57;;;;;;;15.60;60.00;94658.56;5094833;28;20452;-75
2021/05/07 01:39:57;;;;;;;4.30;3.70;;;;;;;15.48;60.52;94660.72;5094644;28;20822;-75
2021/05/07 01:42:23;;;;;;;5.50;4.30;;;;;;;15.38;61.19;94660.06;5094293;28;20455;-75
2021/05/07 01:44:49;;;;;;;7.93;3.10;;;;;;;15.32;60.96;94665.97;5094346;28;20445;-75
2021/05/07 01:47:16;;;;;;;3.87;3.50;;;;;;;15.28;61.45;94663.81;5094133;28;20446;-75
2021/05/07 01:49:42;;;;;;;3.97;3.63;;;;;;;15.25;61.41;94658.88;5094386;28;20501;-75
2021/05/07 01:52:10;;;;;;;3.67;3.37;;;;;;;15.20;61.57;94654.09;5094330;28;20947;-75
2021/05/07 01:54:36;;;;;;;5.67;3.93;;;;;;;15.14;61.69;94652.94;5094024;28;20815;-75
2021/05/07 01:57:02;;;;;;;4.93;4.40;;;;;;;15.08;61.79;94647.47;5094293;28;20465;-75
2021/05/07 01:59:29;;;;;;;4.07;3.43;;;;;;;15.08;62.40;94658.03;5093935;28;20450;-76
2021/05/07 02:01:55;;;;;;;8.53;3.77;;;;;;;15.07;62.47;94656.41;5093974;28;20439;-75
2021/05/07 02:04:21;;;;;;;5.10;3.90;;;;;;;15.06;62.49;94650.28;5094102;28;20550;-76
2021/05/07 02:06:47;;;;;;;6.53;5.40;;;;;;;15.02;62.35;94642.81;5094212;28;20442;-75
2021/05/07 02:09:15;;;;;;;3.87;3.57;;;;;;;15.05;62.26;94647.81;5094047;28;20438;-75
2021/05/07 02:11:41;;;;;;;4.07;3.67;;;;;;;15.08;62.37;94653.59;5093900;28;20933;-75
2021/05/07 02:14:07;;;;;;;5.63;3.60;;;;;;;15.09;62.35;94654.41;5093599;28;20473;-77
2021/05/07 02:16:34;;;;;;;3.60;3.40;;;;;;;15.09;62.64;94646.47;5093508;28;20445;-76
2021/05/07 02:19:00;;;;;;;6.00;3.77;;;;;;;15.03;62.75;94639.19;5058189;28;20442;-75
2021/05/07 02:21:26;;;;;;;4.37;3.43;;;;;;;15.04;62.85;94646.16;5093605;28;20810;-76
2021/05/07 02:23:53;;;;;;;7.63;3.60;;;;;;;15.01;63.21;94644.63;5093451;28;20481;-75
2021/05/07 02:26:20;;;;;;;5.27;3.50;;;;;;;15.03;63.22;94639.19;5057931;28;20436;-75
2021/05/07 02:28:47;;;;;;;4.03;3.63;;;;;;;15.06;62.95;94646.81;5093467;28;20442;-75
2021/05/07 02:31:13;;;;;;;9.43;4.50;;;;;;;15.07;62.84;94648.47;5093449;28;20448;-75
2021/05/07 02:33:39;;;;;;;9.03;3.70;;;;;;;15.06;62.87;94638.88;5093209;28;20446;-75
2021/05/07 02:36:07;;;;;;;8.63;3.80;;;;;;;15.09;63.49;94630.63;5057943;28;20447;-76
2021/05/07 02:38:34;;;;;;;13.00;3.50;;;;;;;15.09;63.70;94638.56;5093701;28;20446;-75
2021/05/07 02:41:00;;;;;;;4.63;4.20;;;;;;;15.08;63.70;94639.56;5091200;28;20437;-75
2021/05/07 02:43:29;;;;;;;5.63;3.30;;;;;;;15.02;63.90;94634.88;5093059;28;20486;-75
2021/05/07 02:45:56;;;;;;;4.63;4.13;;;;;;;14.98;64.27;94637.03;5093382;28;20499;-76
2021/05/07 02:48:22;;;;;;;6.17;3.87;;;;;;;14.90;64.49;94641.50;5093036;28;20883;-75
2021/05/07 02:50:48;;;;;;;12.53;6.50;;;;;;;14.78;64.75;94647.09;5093389;28;20925;-75
2021/05/07 02:53:16;;;;;;;4.10;3.80;;;;;;;14.78;64.91;94641.81;5092802;28;20549;-75
2021/05/07 02:55:42;;;;;;;8.40;3.87;;;;;;;14.75;65.24;94638.66;5092971;28;20738;-75
2021/05/07 02:58:08;;;;;;;6.70;4.30;;;;;;;14.76;65.40;94646.44;5092770;28;20450;-76
2021/05/07 03:00:36;;;;;;;6.83;4.57;;;;;;;14.70;65.50;94644.41;5092988;28;20952;-75
2021/05/07 03:03:02;;;;;;;3.90;3.60;;;;;;;14.64;66.07;94639.78;5092692;28;21006;-75
2021/05/07 03:05:28;;;;;;;5.70;4.00;;;;;;;14.60;66.38;94643.72;5093049;28;20443;-76
2021/05/07 03:07:54;;;;;;;5.27;4.00;;;;;;;14.54;66.33;94644.38;5092819;28;20452;-75
2021/05/07 03:10:21;;;;;;;3.93;3.63;;;;;;;14.50;66.17;94643.03;5093142;28;20441;-75
2021/05/07 03:12:47;;;;;;;4.03;3.60;;;;;;;14.50;66.18;94643.03;5093148;28;20440;-75
2021/05/07 03:15:14;;;;;;;4.00;3.70;;;;;;;14.42;66.59;94646.44;5092508;28;20447;-75
2021/05/07 03:17:41;;;;;;;4.53;4.10;;;;;;;14.45;66.66;94650.59;5093029;28;20450;-75
2021/05/07 03:20:09;;;;;;;6.20;3.50;;;;;;;14.48;66.30;94650.31;5092573;28;20445;-75
2021/05/07 03:22:35;;;;;;;7.20;4.17;;;;;;;14.54;66.16;94663.69;5092345;28;20456;-75
2021/05/07 03:25:01;;;;;;;6.63;3.80;;;;;;;14.63;66.08;94661.88;5092424;28;20450;-75
2021/05/07 03:27:28;;;;;;;3.77;3.47;;;;;;;14.75;65.66;94657.97;5092341;28;20439;-75
2021/05/07 03:29:54;;;;;;;5.53;3.70;;;;;;;14.62;66.64;94662.88;5092360;28;20449;-75
2021/05/07 03:32:20;;;;;;;10.17;4.43;;;;;;;14.60;66.21;94670.13;5092242;28;20441;-76
2021/05/07 03:34:48;;;;;;;3.23;3.03;;;;;;;14.63;66.29;94669.00;5092415;28;20780;-75
2021/05/07 03:37:15;;;;;;;5.00;3.50;;;;;;;14.02;69.19;94672.63;5092078;28;20453;-75
2021/05/07 03:39:41;;;;;;;6.13;4.20;;;;;;;14.14;69.02;94687.22;5092490;28;20977;-75
2021/05/07 03:42:08;;;;;;;4.30;3.90;;;;;;;14.23;69.04;94688.94;5092097;28;20495;-75
2021/05/07 03:44:34;;;;;;;14.00;5.60;;;;;;;14.37;69.30;94690.13;5092005;28;21013;-76
2021/05/07 03:47:01;;;;;;;7.47;4.60;;;;;;;14.75;67.89;94694.97;5091796;28;20452;-76
2021/05/07 03:49:28;;;;;;;6.17;4.43;;;;;;;15.23;65.96;94688.13;5092253;28;20444;-75
2021/05/07 03:51:55;;;;;;;9.50;4.00;;;;;;;15.57;64.53;94692.44;5073356;28;20998;-75
2021/05/07 03:54:22;;;;;;;8.50;5.50;;;;;;;15.72;63.82;94688.19;5091919;28;20449;-75
2021/05/07 03:56:48;;;;;;;5.87;4.27;;;;;;;15.68;63.32;94686.84;5056326;28;20797;-77
2021/05/07 03:59:14;;;;;;;7.13;3.67;;;;;;;15.76;63.33;94692.97;5092223;28;20438;-76
2021/05/07 04:01:41;;;;;;;11.37;4.20;;;;;;;15.97;62.59;94696.94;5092049;28;20849;-75
2021/05/07 04:04:09;;;;;;;19.00;5.87;;;;;;;16.34;60.80;94696.34;5091974;28;20479;-75
2021/05/07 04:06:35;;;;;;;11.20;5.80;;;;;;;16.89;59.65;94700.81;5092263;28;20445;-75
2021/05/07 04:09:07;;;;;;;5.30;4.63;;;;;;;17.51;57.65;94693.63;5091865;28;20454;-76
2021/05/07 04:11:37;;;;;;;11.57;5.20;;;;;;;18.05;55.45;94690.06;5092009;28;20500;-76
2021/05/07 04:14:04;;;;;;;9.30;5.60;;;;;;;18.01;54.46;94700.22;5091906;28;20442;-75
2021/05/07 04:16:30;;;;;;;16.50;5.67;;;;;;;18.15;54.82;94703.88;5091882;28;20439;-76
2021/05/07 04:18:57;;;;;;;6.23;4.60;;;;;;;18.18;54.72;94700.88;5091682;28;20494;-75
2021/05/07 04:21:24;;;;;;;5.50;4.93;;;;;;;18.20;54.20;94714.78;5092253;28;20437;-76
2021/05/07 04:23:50;;;;;;;8.20;5.10;;;;;;;17.97;54.01;94717.53;5091948;28;20493;-75
2021/05/07 04:26:18;;;;;;;9.30;6.70;;;;;;;17.86;54.71;94717.94;5092014;28;20440;-75
2021/05/07 04:28:45;;;;;;;7.70;5.43;;;;;;;17.92;54.67;94717.19;5073002;28;20948;-75
2021/05/07 04:31:11;;;;;;;7.00;5.60;;;;;;;17.99;54.23;94706.72;5091591;28;20447;-75
2021/05/07 04:33:37;;;;;;;6.80;6.07;;;;;;;18.00;54.61;94711.84;5091579;28;20448;-75
2021/05/07 04:36:05;;;;;;;11.70;5.90;;;;;;;18.14;55.12;94715.53;5091426;28;20451;-75
2021/05/07 04:38:31;;;;;;;8.67;5.53;;;;;;;18.21;53.35;94708.47;5091481;28;20928;-76
2021/05/07 04:40:58;;;;;;;5.80;5.03;;;;;;;18.27;54.05;94715.75;5091621;28;20472;-76
2021/05/07 04:43:25;;;;;;;7.67;5.17;;;;;;;18.33;53.78;94725.63;5091538;28;20482;-75
2021/05/07 04:45:52;;;;;;;9.10;5.43;;;;;;;18.29;53.62;94732.31;5091641;28;20944;-76
2021/05/07 04:48:18;;;;;;;8.47;5.43;;;;;;;18.36;53.41;94733.25;5091488;28;20447;-75
2021/05/07 04:50:45;;;;;;;6.27;5.60;;;;;;;18.26;53.83;94740.66;5091412;28;20443;-75
2021/05/07 04:53:11;;;;;;;8.27;6.13;;;;;;;18.46;53.41;94731.13;5091625;28;20440;-75
2021/05/07 04:55:38;;;;;;;9.43;5.93;;;;;;;18.39;53.51;94730.22;5091267;28;20441;-75
2021/05/07 04:58:04;;;;;;;7.83;6.10;;;;;;;18.58;52.76;94734.19;5091526;28;20510;-74
2021/05/07 05:00:32;;;;;;;7.30;6.57;;;;;;;18.52;53.34;94749.03;5093370;28;20445;-74
2021/05/07 05:02:58;;;;;;;7.37;6.60;;;;;;;18.55;53.39;94740.69;5095242;28;20482;-74
2021/05/07 05:05:24;;;;;;;15.10;6.67;;;;;;;18.57;53.18;94738.66;5094871;28;20454;-75
2021/05/07 05:07:52;;;;;;;7.70;6.50;;;;;;;18.84;52.63;94734.59;5095054;28;20452;-74
2021/05/07 05:10:19;;;;;;;11.07;6.63;;;;;;;19.09;52.30;94732.44;5095081;28;20585;-74
2021/05/07 05:12:45;;;;;;;8.83;5.60;;;;;;;19.41;51.06;94722.38;5094837;28;20474;-74
2021/05/07 05:15:13;;;;;;;10.63;6.30;;;;;;;19.55;50.67;94732.16;5094658;28;20978;-75
2021/05/07 05:17:40;;;;;;;8.43;6.40;;;;;;;19.58;51.44;94726.47;5094603;28;20454;-76
2021/05/07 05:20:08;;;;;;;7.63;6.30;;;;;;;19.62;51.82;94730.38;5094721;28;20437;-75
2021/05/07 05:22:35;;;;;;;9.30;6.53;;;;;;;19.78;51.33;94732.00;5094896;28;20453;-74
2021/05/07 05:25:04;;;;;;;11.77;7.27;;;;;;;20.06;51.25;94730.22;5094594;28;20482;-75
2021/05/07 05:27:31;;;;;;;14.37;6.70;;;;;;;20.46;49.74;94733.19;5094495;28;20442;-75
2021/05/07 05:29:58;;;;;;;6.70;6.10;;;;;;;20.63;48.83;94731.06;5094599;28;20443;-74
2021/05/07 05:32:24;;;;;;;16.33;6.77;;;;;;;20.85;47.79;94729.97;5094523;28;20438;-75
2021/05/07 05:34:51;;;;;;;8.13;5.90;;;;;;;21.09;47.00;94733.97;5094594;28;20564;-75
2021/05/07 05:37:18;;;;;;;13.70;6.70;;;;;;;21.01;46.63;94729.63;5094772;28;20436;-74
2021/05/07 05:39:44;;;;;;;17.10;5.97;;;;;;;21.28;46.45;94735.13;5094099;28;20489;-75
2021/05/07 05:42:10;;;;;;;9.50;6.60;;;;;;;21.61;46.12;94729.88;5094174;28;20830;-76
2021/05/07 05:44:37;;;;;;;6.23;5.63;;;;;;;21.88;45.25;94730.75;5094117;28;20900;-75
2021/05/07 05:47:03;;;;;;;12.20;5.60;;;;;;;22.01;44.62;94727.31;5094188;28;20893;-75
2021/05/07 05:49:30;;;;;;;10.50;6.83;;;;;;;22.09;45.58;94717.25;5094082;28;20927;-75
2021/05/07 05:51:57;;;;;;;9.90;6.70;;;;;;;22.16;45.15;94722.59;5058750;28;21043;-76
2021/05/07 05:54:23;;;;;;;7.93;5.70;;;;;;;22.14;44.87;94719.31;5041738;28;20445;-76
2021/05/07 05:56:49;;;;;;;7.63;5.40;;;;;;;21.85;44.51;94726.66;5094112;28;20445;-75
2021/05/07 05:59:16;;;;;;;6.57;5.70;;;;;;;21.43;44.69;94733.13;5094367;28;20436;-76
2021/05/07 06:01:42;;;;;;;13.30;6.40;;;;;;;21.42;45.89;94731.50;5093696;28;21045;-76
2021/05/07 06:04:08;;;;;;;6.93;5.07;;;;;;;21.33;46.44;94733.50;5093809;28;20479;-75
2021/05/07 06:06:35;;;;;;;12.10;5.77;;;;;;;21.39;46.15;94737.19;5093918;28;20444;-74
2021/05/07 06:09:02;;;;;;;9.43;5.73;;;;;;;21.10;46.95;94732.94;5093958;28;20447;-75
2021/05/07 06:11:28;;;;;;;8.70;6.07;;;;;;;21.14;47.95;94736.88;5093539;28;20502;-76
2021/05/07 06:13:55;;;;;;;7.53;5.70;;;;;;;20.99;48.43;94742.34;5093937;28;20454;-76
2021/05/07 06:16:21;;;;;;;12.07;6.07;;;;;;;21.26;48.18;94747.84;5093765;28;20784;-76
2021/05/07 06:18:47;;;;;;;9.10;5.30;;;;;;;21.58;47.39;94744.47;5074730;28;20443;-76
2021/05/07 06:21:14;;;;;;;6.87;4.80;;;;;;;21.79;46.27;94738.16;5093822;28;20470;-76
2021/05/07 06:23:40;;;;;;;7.40;5.47;;;;;;;21.95;45.33;94727.06;5057765;28;21014;-76
2021/05/07 06:26:07;;;;;;;13.13;5.60;;;;;;;21.96;45.63;94730.56;5093345;28;20445;-77
2021/05/07 06:28:34;;;;;;;8.77;5.43;;;;;;;22.27;45.03;94726.53;5093486;28;20449;-76
2021/05/07 06:31:00;;;;;;;13.83;4.80;;;;;;;22.55;43.54;94721.75;5057689;28;20442;-77
2021/05/07 06:33:26;;;;;;;5.47;4.00;;;;;;;22.93;42.63;94723.78;5040874;28;20453;-77
2021/05/07 06:35:53;;;;;;;5.80;4.87;;;;;;;23.26;42.84;94719.13;5093519;28;20496;-77
2021/05/07 06:38:19;;;;;;;5.60;5.07;;;;;;;23.54;41.77;94715.28;5093082;28;20444;-76
2021/05/07 06:40:46;;;;;;;12.43;5.50;;;;;;;23.57;41.61;94710.38;5093284;28;20451;-76
2021/05/07 06:43:14;;;;;;;6.10;4.67;;;;;;;23.70;40.81;94709.44;5093420;28;20482;-77
2021/05/07 06:45:44;;;;;;;6.97;4.97;;;;;;;23.79;40.53;94700.97;5093061;28;20467;-76
2021/05/07 06:48:10;;;;;;;11.60;4.70;;;;;;;23.53;40.22;94710.97;5093028;28;20443;-76
2021/05/07 06:50:36;;;;;;;7.00;4.30;;;;;;;22.93;41.32;94713.06;5093075;28;20450;-77
2021/05/07 06:53:03;;;;;;;5.33;4.83;;;;;;;22.45;41.99;94699.97;5093119;28;20449;-76
2021/05/07 06:55:29;;;;;;;5.77;4.53;;;;;;;22.62;41.89;94706.53;5092888;28;20445;-77
2021/05/07 06:57:55;;;;;;;5.10;4.50;;;;;;;22.50;43.20;94703.66;5092940;28;20938;-76
2021/05/07 07:00:23;;;;;;;5.30;4.10;;;;;;;22.65;43.20;94702.63;5092917;28;20448;-76
2021/05/07 07:02:49;;;;;;;7.60;6.00;;;;;;;22.92;42.09;94700.72;5092790;28;20446;-76
2021/05/07 07:05:15;;;;;;;5.17;4.67;;;;;;;23.17;42.51;94704.34;5092730;28;20863;-76
2021/05/07 07:07:42;;;;;;;8.57;5.20;;;;;;;23.51;42.27;94702.34;5092894;28;20446;-76
2021/05/07 07:10:09;;;;;;;5.23;4.73;;;;;;;23.60;41.63;94695.72;5092836;28;20448;-76
2021/05/07 07:12:35;;;;;;;5.63;4.37;;;;;;;23.64;41.22;94697.75;5092760;28;20798;-75
2021/05/07 07:15:02;;;;;;;6.90;4.33;;;;;;;23.77;40.21;94704.91;5093049;28;20456;-75
2021/05/07 07:17:30;;;;;;;7.27;4.90;;;;;;;24.05;40.23;94694.59;5056739;28;20445;-75
2021/05/07 07:19:56;;;;;;;7.27;5.43;;;;;;;24.42;39.77;94702.78;5092591;28;20441;-74
2021/05/07 07:22:23;;;;;;;6.97;4.70;;;;;;;24.72;38.57;94702.91;5091818;28;20502;-75
2021/05/07 07:24:49;;;;;;;9.40;5.77;;;;;;;24.88;38.33;94685.41;5092269;28;20492;-75
2021/05/07 07:27:16;;;;;;;5.77;4.60;;;;;;;25.18;38.14;94683.66;5092826;28;20472;-75
2021/05/07 07:29:43;;;;;;;5.77;4.23;;;;;;;25.38;37.02;94678.00;5092670;28;20446;-75
2021/05/07 07:32:10;;;;;;;7.03;4.93;;;;;;;25.73;36.81;94672.78;5092564;28;20473;-75
2021/05/07 07:34:37;;;;;;;11.90;5.00;;;;;;;25.91;36.70;94680.81;5092288;28;20542;-75
2021/05/07 07:37:04;;;;;;;6.67;5.50;;;;;;;26.19;36.65;94665.91;5092274;28;20447;-75
2021/05/07 07:39:30;;;;;;;11.70;4.70;;;;;;;26.50;36.76;94667.47;5092530;28;20528;-76
2021/05/07 07:41:56;;;;;;;5.57;5.03;;;;;;;26.47;34.94;94654.47;5092241;28;20446;-76
2021/05/07 07:44:23;;;;;;;11.67;5.23;;;;;;;26.48;35.19;94640.78;5092280;28;20479;-75
2021/05/07 07:46:50;;;;;;;11.63;5.97;;;;;;;26.55;34.01;94644.16;5092306;28;20466;-75
2021/05/07 07:49:16;;;;;;;9.17;6.10;;;;;;;25.77;35.47;94636.38;5092143;28;20446;-75
2021/05/07 07:51:43;;;;;;;11.67;6.30;;;;;;;25.36;37.72;94633.59;5092088;28;20443;-75
2021/05/07 07:54:12;;;;;;;13.53;5.57;;;;;;;25.41;37.17;94631.88;5091862;28;20451;-75
2021/05/07 07:56:39;;;;;;;5.70;4.70;;;;;;;25.56;37.92;94634.97;5057155;28;20533;-75
2021/05/07 07:59:05;;;;;;;9.97;5.43;;;;;;;25.62;38.22;94627.88;5092062;28;20842;-75
2021/05/07 08:01:32;;;;;;;10.27;6.37;;;;;;;24.96;37.34;94626.88;5073041;28;20501;-75
2021/05/07 08:03:58;;;;;;;14.30;7.20;;;;;;;24.85;38.81;94630.28;5091993;28;20481;-75
2021/05/07 08:06:24;;;;;;;11.20;6.00;;;;;;;24.75;38.34;94632.69;5091856;28;20480;-76
2021/05/07 08:08:52;;;;;;;6.53;5.70;;;;;;;24.95;38.05;94616.34;5091997;28;20535;-75
2021/05/07 08:11:18;;;;;;;9.70;5.30;;;;;;;25.08;36.94;94615.38;5092035;28;20437;-75
2021/05/07 08:13:45;;;;;;;13.07;5.47;;;;;;;24.99;37.69;94620.25;5092438;28;20454;-75
2021/05/07 08:16:11;;;;;;;7.90;5.43;;;;;;;24.47;37.71;94609.03;5091889;28;20476;-76
2021/05/07 08:18:37;;;;;;;9.07;4.90;;;;;;;24.66;39.22;94617.94;5092002;28;20444;-75
2021/05/07 08:21:04;;;;;;;11.20;5.50;;;;;;;24.54;38.82;94615.16;5091963;28;20500;-75
2021/05/07 08:23:31;;;;;;;11.40;5.00;;;;;;;24.60;39.08;94616.97;5091822;28;20493;-77
2021/05/07 08:25:58;;;;;;;12.83;5.67;;;;;;;24.81;39.95;94614.84;5092347;28;20822;-76
2021/05/07 08:28:25;;;;;;;15.43;5.23;;;;;;;24.88;38.55;94602.19;5091892;28;20472;-77
2021/05/07 08:30:51;;;;;;;8.97;5.30;;;;;;;24.54;39.67;94604.41;5091925;28;20449;-77
2021/05/07 08:33:17;;;;;;;8.60;3.70;;;;;;;24.84;39.04;94609.03;5073041;28;20450;-76
2021/05/07 08:35:43;;;;;;;8.50;4.40;;;;;;;24.80;38.51;94602.47;5095735;28;20485;-77
2021/05/07 08:38:11;;;;;;;6.17;4.10;;;;;;;24.75;39.01;94595.09;5095844;28;20447;-76
2021/05/07 08:40:38;;;;;;;5.60;4.60;;;;;;;24.68;39.10;94603.25;5095846;28;20528;-76
2021/05/07 08:43:08;;;;;;;10.53;3.87;;;;;;;24.38;38.52;94594.28;5095751;28;20446;-76
2021/05/07 08:45:35;;;;;;;6.90;3.73;;;;;;;24.04;39.27;94590.25;5095697;28;20445;-77
2021/05/07 08:48:02;;;;;;;5.40;3.73;;;;;;;23.80;40.25;94594.59;5076701;28;20525;-77
2021/05/07 08:50:28;;;;;;;5.57;3.37;;;;;;;23.67;40.72;94587.47;5095559;28;20438;-76
2021/05/07 08:52:55;;;;;;;6.90;3.57;;;;;;;23.62;40.51;94591.84;5095519;28;20447;-76
2021/05/07 08:55:21;;;;;;;5.77;4.00;;;;;;;23.54;41.71;94608.97;5095272;28;20452;-76
2021/05/07 08:57:47;;;;;;;5.03;3.43;;;;;;;23.67;41.32;94592.81;5095198;28;20439;-76
2021/05/07 09:00:16;;;;;;;9.57;3.90;;;;;;;23.79;40.83;94580.38;5095288;28;20441;-76
2021/05/07 09:02:42;;;;;;;3.43;3.20;;;;;;;24.01;40.26;94580.81;5095403;28;20448;-77
2021/05/07 09:05:09;;;;;;;5.23;3.40;;;;;;;24.22;40.32;94568.81;5095102;28;21060;-77
2021/05/07 09:07:36;;;;;;;8.77;3.63;;;;;;;24.47;40.24;94582.22;5095223;28;20507;-76
2021/05/07 09:10:03;;;;;;;11.50;3.77;;;;;;;24.62;39.98;94577.31;5094982;28;21004;-76
2021/05/07 09:12:32;;;;;;;4.83;3.40;;;;;;;24.65;40.21;94584.09;5076165;28;20449;-76
2021/05/07 09:14:59;;;;;;;8.27;4.10;;;;;;;24.12;38.60;94563.16;5095149;28;20460;-76
2021/05/07 09:17:28;;;;;;;6.67;3.70;;;;;;;23.92;40.13;94563.34;5094799;28;20437;-77
2021/05/07 09:20:07;;;;;;;4.20;3.80;;;;;;;23.86;39.54;94560.72;5095200;28;20451;-76
2021/05/07 09:22:33;;;;;;;7.67;3.60;;;;;;;23.62;39.72;94562.38;5094856;28;20450;-77
2021/05/07 09:25:11;;;;;;;6.47;3.17;;;;;;;23.63;39.73;94569.38;5094643;28;20850;-76
2021/05/07 09:27:38;;;;;;;9.40;3.97;;;;;;;23.69;39.11;94568.47;5092351;28;20461;-76
2021/05/07 09:30:10;;;;;;;5.17;3.37;;;;;;;23.58;40.00;94567.34;5077112;28;20447;-76
2021/05/07 09:32:37;;;;;;;6.30;3.87;;;;;;;23.62;40.41;94567.72;5094557;28;20848;-76
2021/05/07 09:35:09;;;;;;;7.10;4.33;;;;;;;23.82;39.69;94562.22;5033983;28;20450;-77
2021/05/07 09:37:35;;;;;;;5.73;3.67;;;;;;;24.08;39.25;94552.06;5095830;28;20844;-78
2021/05/07 09:40:14;;;;;;;6.83;3.67;;;;;;;24.18;40.56;94540.00;5086258;28;20470;-85
2021/05/07 09:42:41;;;;;;;4.70;3.97;;;;;;;24.10;39.71;94543.81;5075632;28;20473;-79
2021/05/07 09:45:19;;;;;;;5.73;3.20;;;;;;;24.01;39.16;94542.47;5055598;28;20483;-79
2021/05/07 09:47:48;;;;;;;3.10;2.90;;;;;;;24.14;38.62;94533.44;5075324;28;20451;-79
2021/05/07 09:50:16;;;;;;;12.80;4.20;;;;;;;24.24;39.46;94531.88;5075697;28;20499;-78
2021/05/07 09:52:44;;;;;;;17.93;3.50;;;;;;;24.31;39.92;94521.97;5075087;28;20484;-79
2021/05/07 09:55:11;;;;;;;4.67;3.43;;;;;;;24.42;38.48;94517.69;5075031;28;20537;-79
2021/05/07 09:57:39;;;;;;;10.53;3.57;;;;;;;24.43;39.35;94500.56;5056772;28;20452;-79
2021/05/07 10:00:07;;;;;;;7.20;3.93;;;;;;;24.46;37.76;94499.28;5075606;28;20442;-79
2021/05/07 10:02:34;;;;;;;12.20;3.67;;;;;;;24.51;38.20;94500.25;5075441;28;20450;-79
2021/05/07 10:05:01;;;;;;;7.40;2.63;;;;;;;24.48;36.83;94505.25;5075439;28;20491;-79
2021/05/07 10:07:29;;;;;;;4.53;3.73;;;;;;;24.60;38.10;94496.22;5075252;28;20496;-80
2021/05/07 10:10:07;;;;;;;3.40;3.10;;;;;;;24.69;38.13;94508.28;5075233;28;20450;-79
2021/05/07 10:12:35;;;;;;;3.00;2.53;;;;;;;24.51;35.83;94492.19;5072879;28;20512;-79
2021/05/07 10:15:03;;;;;;;3.53;2.77;;;;;;;24.59;35.59;94499.13;5075036;28;20452;-79
2021/05/07 10:17:31;;;;;;;4.43;2.27;;;;;;;24.66;33.14;94500.69;5022956;28;20447;-81
2021/05/07 10:19:57;;;;;;;8.32;3.05;;;;;;;24.83;33.83;94487.44;5073803;28;20521;-81
2021/05/07 10:22:37;;;;;;;9.83;3.07;;;;;;;25.03;32.25;94495.25;5074512;28;20212;-79
2021/05/07 10:25:13;;;;;;;15.73;4.20;;;;;;;25.14;31.67;94490.94;5055278;28;20557;-78
2021/05/07 10:27:44;;;;;;;19.70;3.53;;;;;;;25.21;31.06;94487.13;5073905;28;20447;-76
2021/05/07 10:30:25;;;;;;;3.77;2.40;;;;;;;25.31;31.25;94481.19;5073947;28;20458;-75
2021/05/07 10:33:00;;;;;;;3.30;2.13;;;;;;;25.54;30.95;94481.22;5073709;28;21202;-75
2021/05/07 10:35:35;;;;;;;2.30;2.10;;;;;;;25.78;31.53;94459.78;5073821;28;20448;-76
2021/05/07 10:38:10;;;;;;;2.80;1.93;;;;;;;26.05;30.28;94455.53;5071097;28;20501;-75
2021/05/07 10:40:37;;;;;;;4.37;2.10;;;;;;;26.16;29.34;94456.56;5073341;28;20472;-75
2021/05/07 10:43:04;;;;;;;3.97;2.03;;;;;;;26.32;29.09;94453.16;5073337;28;20444;-75
2021/05/07 10:45:54;;;;;;;12.77;2.60;;;;;;;26.46;28.43;94453.72;5054457;28;20538;-76
2021/05/07 10:48:23;;;;;;;21.23;2.70;;;;;;;26.41;27.50;94443.66;5050870;28;20476;-75
2021/05/07 10:50:53;;;;;;;8.10;3.67;;;;;;;26.27;25.12;94458.41;5050857;28;20849;-75
2021/05/07 10:53:31;;;;;;;14.60;2.77;;;;;;;26.15;23.03;94452.22;5050860;28;20442;-74
2021/05/07 10:55:58;;;;;;;2.40;2.20;;;;;;;26.15;24.54;94442.28;5051003;28;20442;-75
2021/05/07 10:58:32;;;;;;;6.20;1.90;;;;;;;26.27;25.28;94441.44;5049759;28;20464;-75
2021/05/07 11:00:58;;;;;;;2.30;2.10;;;;;;;26.30;23.82;94446.34;5050874;28;20487;-75
2021/05/07 11:03:25;;;;;;;12.27;2.60;;;;;;;26.35;24.63;94452.69;5050603;28;20477;-76
2021/05/07 11:05:52;;;;;;;7.40;2.17;;;;;;;26.35;25.36;94454.56;5050457;28;20470;-75
2021/05/07 11:08:19;;;;;;;14.73;2.50;;;;;;;26.34;25.46;94436.78;5050550;28;20438;-75
2021/05/07 11:10:49;;;;;;;8.03;2.23;;;;;;;26.36;26.67;94437.38;5050668;28;20460;-75
2021/05/07 11:13:15;;;;;;;9.00;2.23;;;;;;;26.20;25.13;94430.81;5050493;28;20540;-74
2021/05/07 11:15:42;;;;;;;3.70;1.73;;;;;;;26.17;25.82;94425.91;5050664;28;20445;-75
2021/05/07 11:18:09;;;;;;;4.00;2.03;;;;;;;26.21;26.56;94416.31;5050359;28;20527;-74
2021/05/07 11:20:37;;;;;;;2.50;1.80;;;;;;;26.16;27.90;94418.91;5050519;28;20433;-75
2021/05/07 11:23:06;;;;;;;9.20;2.10;;;;;;;26.13;26.81;94419.38;5050344;28;20870;-75
2021/05/07 11:25:34;;;;;;;4.13;2.10;;;;;;;26.13;27.34;94408.63;5068054;28;20885;-75
2021/05/07 11:28:12;;;;;;;9.10;2.20;;;;;;;26.29;27.85;94410.56;5072731;28;20440;-75
2021/05/07 11:30:47;;;;;;;5.63;2.13;;;;;;;26.29;27.56;94396.28;5072458;28;20452;-75
2021/05/07 11:33:13;;;;;;;4.07;2.00;;;;;;;26.37;27.53;94396.78;5070167;28;20454;-74